createdAt,value
2019-03-11T00:01:44.334Z,2.60
2019-03-11T00:04:51.501Z,2.60
2019-03-11T00:07:58.509Z,2.60
2019-03-11T00:11:05.769Z,2.70
2019-03-11T00:14:12.907Z,2.70
2019-03-11T00:17:20.124Z,2.70
2019-03-11T00:20:27.463Z,2.70
2019-03-11T00:23:34.662Z,2.60
2019-03-11T00:26:41.716Z,2.60
2019-03-11T00:29:49.555Z,2.60
2019-03-11T00:32:56.638Z,2.60
2019-03-11T00:36:03.687Z,2.50
2019-03-11T00:39:10.823Z,2.40
2019-03-11T00:42:17.982Z,2.30
2019-03-11T00:45:25.698Z,2.40
2019-03-11T00:48:34.654Z,2.40
2019-03-11T00:51:41.787Z,2.40
2019-03-11T00:54:48.890Z,2.50
2019-03-11T00:57:56.137Z,2.50
2019-03-11T01:01:03.147Z,2.60
2019-03-11T01:04:10.250Z,2.60
2019-03-11T01:07:28.496Z,2.60
2019-03-11T01:10:35.517Z,2.80
2019-03-11T01:13:42.754Z,2.90
2019-03-11T01:16:49.780Z,3.00
2019-03-11T01:19:57.514Z,3.00
2019-03-11T01:23:04.785Z,3.00
2019-03-11T01:26:11.872Z,2.90
2019-03-11T01:29:19.089Z,2.80
2019-03-11T01:32:26.590Z,2.80
2019-03-11T01:35:33.588Z,2.90
2019-03-11T01:38:40.878Z,3.00
2019-03-11T01:41:48.152Z,2.90
2019-03-11T01:44:55.320Z,3.00
2019-03-11T01:48:02.343Z,2.90
2019-03-11T01:51:09.322Z,2.70
2019-03-11T01:54:16.343Z,2.90
2019-03-11T01:57:23.398Z,2.90
2019-03-11T02:00:30.564Z,2.80
2019-03-11T02:03:37.603Z,2.70
2019-03-11T02:06:44.893Z,2.60
2019-03-11T02:09:52.224Z,2.50
2019-03-11T02:12:59.429Z,2.60
2019-03-11T02:16:06.438Z,2.60
2019-03-11T02:19:13.755Z,2.60
2019-03-11T02:22:21.070Z,2.70
2019-03-11T02:25:28.229Z,2.80
2019-03-11T02:28:35.548Z,2.90
2019-03-11T02:31:42.724Z,2.90
2019-03-11T02:34:50.120Z,3.00
2019-03-11T02:37:57.701Z,3.10
2019-03-11T02:41:04.776Z,3.10
2019-03-11T02:44:11.808Z,3.20
2019-03-11T02:47:19.099Z,3.30
2019-03-11T02:50:26.352Z,3.40
2019-03-11T02:53:33.472Z,3.30
2019-03-11T02:56:40.524Z,3.30
2019-03-11T02:59:47.842Z,3.20
2019-03-11T03:03:13.987Z,3.30
2019-03-11T03:06:22.668Z,3.30
2019-03-11T03:09:31.826Z,3.20
2019-03-11T03:12:39.429Z,3.20
2019-03-11T03:15:46.428Z,3.10
2019-03-11T03:18:53.622Z,3.10
2019-03-11T03:22:00.660Z,3.10
2019-03-11T03:25:08.608Z,3.10
2019-03-11T03:28:15.769Z,3.20
2019-03-11T03:31:23.147Z,3.30
2019-03-11T03:34:30.338Z,3.20
2019-03-11T03:37:37.452Z,3.10
2019-03-11T03:40:44.681Z,3.00
2019-03-11T03:43:51.834Z,2.90
2019-03-11T03:46:58.878Z,2.70
2019-03-11T03:50:06.141Z,2.60
2019-03-11T03:53:13.223Z,2.50
2019-03-11T03:56:20.473Z,2.50
2019-03-11T03:59:27.457Z,2.40
2019-03-11T04:02:34.536Z,2.40
2019-03-11T04:05:41.595Z,2.40
2019-03-11T04:08:48.736Z,2.30
2019-03-11T04:11:55.793Z,2.30
2019-03-11T04:15:03.228Z,2.30
2019-03-11T04:18:10.669Z,2.30
2019-03-11T04:21:17.935Z,2.20
2019-03-11T04:24:25.165Z,2.20
2019-03-11T04:27:32.221Z,2.30
2019-03-11T04:30:39.549Z,2.30
2019-03-11T04:33:46.659Z,2.20
2019-03-11T04:36:53.954Z,2.20
2019-03-11T04:40:01.143Z,2.30
2019-03-11T04:43:08.362Z,2.40
2019-03-11T04:46:15.587Z,2.30
2019-03-11T04:49:22.867Z,2.40
2019-03-11T04:52:30.030Z,2.30
2019-03-11T04:55:37.306Z,2.20
2019-03-11T04:58:44.394Z,2.30
2019-03-11T05:01:51.611Z,2.40
2019-03-11T05:04:58.796Z,2.30
2019-03-11T05:08:06.056Z,2.30
2019-03-11T05:11:13.378Z,2.30
2019-03-11T05:14:20.574Z,2.30
2019-03-11T05:17:27.738Z,2.30
2019-03-11T05:20:35.115Z,2.30
2019-03-11T05:23:42.423Z,2.40
2019-03-11T05:26:49.705Z,2.40
2019-03-11T05:29:57.119Z,2.30
2019-03-11T05:33:04.292Z,2.30
2019-03-11T05:36:11.636Z,2.40
2019-03-11T05:39:19.100Z,2.40
2019-03-11T05:42:26.697Z,2.50
2019-03-11T05:45:33.830Z,2.50
2019-03-11T05:48:41.166Z,2.40
2019-03-11T05:51:48.263Z,2.40
2019-03-11T05:54:55.654Z,2.40
2019-03-11T05:58:03.103Z,2.60
2019-03-11T06:01:10.352Z,2.70
2019-03-11T06:04:17.630Z,2.70
2019-03-11T06:07:25.127Z,2.80
2019-03-11T06:10:32.161Z,2.90
2019-03-11T06:13:39.282Z,2.90
2019-03-11T06:16:46.543Z,2.90
2019-03-11T06:20:03.001Z,2.90
2019-03-11T06:23:11.060Z,3.00
2019-03-11T06:26:18.083Z,2.90
2019-03-11T06:29:30.403Z,2.80
2019-03-11T06:32:34.051Z,2.80
2019-03-11T06:35:41.337Z,2.70
2019-03-11T06:38:48.584Z,2.80
2019-03-11T06:41:55.711Z,2.80
2019-03-11T06:45:02.950Z,2.70
2019-03-11T06:48:10.044Z,2.90
2019-03-11T06:51:17.167Z,2.90
2019-03-11T06:54:33.912Z,3.00
2019-03-11T06:57:41.028Z,3.20
2019-03-11T07:00:48.161Z,3.10
2019-03-11T07:03:55.456Z,3.20
2019-03-11T07:07:02.445Z,3.30
2019-03-11T07:10:10.744Z,3.30
2019-03-11T07:13:17.835Z,3.40
2019-03-11T07:16:25.002Z,3.30
2019-03-11T07:19:32.016Z,3.20
2019-03-11T07:22:39.005Z,3.40
2019-03-11T07:25:46.229Z,3.40
2019-03-11T07:28:53.449Z,3.50
2019-03-11T07:32:00.563Z,3.40
2019-03-11T07:35:08.934Z,3.40
2019-03-11T07:38:16.253Z,3.50
2019-03-11T07:41:23.594Z,3.40
2019-03-11T07:44:30.628Z,3.20
2019-03-11T07:47:37.745Z,3.10
2019-03-11T07:50:44.890Z,3.20
2019-03-11T07:53:51.905Z,3.40
2019-03-11T07:56:58.987Z,3.60
2019-03-11T08:00:08.710Z,3.70
2019-03-11T08:03:15.754Z,3.90
2019-03-11T08:06:22.846Z,3.90
2019-03-11T08:09:37.965Z,3.90
2019-03-11T08:12:38.627Z,3.80
2019-03-11T08:15:45.748Z,3.60
2019-03-11T08:18:52.651Z,3.50
2019-03-11T08:21:59.722Z,3.60
2019-03-11T08:25:07.023Z,3.50
2019-03-11T08:28:13.977Z,3.40
2019-03-11T08:31:20.945Z,3.30
2019-03-11T08:34:27.968Z,3.20
2019-03-11T08:37:35.139Z,3.10
2019-03-11T08:40:43.053Z,3.40
2019-03-11T08:43:50.284Z,3.90
2019-03-11T08:46:57.286Z,4.40
2019-03-11T08:50:04.755Z,4.70
2019-03-11T08:53:11.860Z,5.10
2019-03-11T08:56:18.847Z,5.40
2019-03-11T08:59:26.019Z,5.70
2019-03-11T09:02:33.194Z,5.70
2019-03-11T09:05:40.326Z,5.50
2019-03-11T09:08:47.417Z,5.10
2019-03-11T09:11:54.436Z,5.60
2019-03-11T09:15:01.516Z,5.90
2019-03-11T09:18:08.598Z,6.70
2019-03-11T09:21:15.586Z,6.70
2019-03-11T09:24:22.611Z,7.10
2019-03-11T09:27:29.749Z,6.90
2019-03-11T09:30:36.908Z,6.70
2019-03-11T09:33:44.178Z,5.90
2019-03-11T09:36:51.409Z,5.40
2019-03-11T09:40:00.410Z,4.90
2019-03-11T09:43:07.409Z,4.50
2019-03-11T09:46:14.450Z,4.20
2019-03-11T09:49:22.001Z,4.10
2019-03-11T09:52:29.055Z,4.00
2019-03-11T09:55:36.096Z,4.30
2019-03-11T09:58:43.340Z,5.60
2019-03-11T10:01:50.346Z,6.60
2019-03-11T10:04:57.323Z,6.90
2019-03-11T10:08:04.490Z,6.70
2019-03-11T10:11:11.475Z,6.10
2019-03-11T10:14:18.419Z,6.10
2019-03-11T10:17:25.889Z,5.90
2019-03-11T10:20:33.206Z,5.60
2019-03-11T10:23:40.409Z,5.60
2019-03-11T10:26:47.545Z,5.50
2019-03-11T10:29:54.588Z,5.50
2019-03-11T10:33:01.609Z,5.80
2019-03-11T10:36:08.586Z,5.80
2019-03-11T10:39:15.908Z,5.30
2019-03-11T10:42:23.271Z,5.00
2019-03-11T10:45:32.190Z,5.00
2019-03-11T10:48:40.441Z,5.10
2019-03-11T10:51:47.445Z,4.90
2019-03-11T10:54:54.485Z,4.90
2019-03-11T10:58:01.975Z,4.90
2019-03-11T11:01:09.887Z,5.00
2019-03-11T11:04:17.372Z,4.90
2019-03-11T11:07:24.871Z,4.90
2019-03-11T11:10:32.012Z,5.00
2019-03-11T11:13:39.068Z,5.10
2019-03-11T11:16:46.605Z,5.30
2019-03-11T11:20:02.796Z,5.30
2019-03-11T11:23:03.095Z,5.30
2019-03-11T11:26:10.351Z,5.30
2019-03-11T11:29:17.299Z,5.40
2019-03-11T11:32:24.794Z,5.30
2019-03-11T11:35:31.852Z,5.20
2019-03-11T11:38:39.028Z,5.20
2019-03-11T11:41:46.085Z,5.20
2019-03-11T11:44:53.249Z,5.10
2019-03-11T11:48:00.410Z,5.10
2019-03-11T11:51:07.656Z,5.20
2019-03-11T11:54:14.846Z,5.40
2019-03-11T11:57:21.998Z,5.50
2019-03-11T12:00:30.311Z,5.50
2019-03-11T12:03:37.697Z,5.20
2019-03-11T12:06:44.942Z,4.80
2019-03-11T12:09:52.254Z,4.50
2019-03-11T12:12:59.390Z,4.20
2019-03-11T12:16:06.699Z,4.20
2019-03-11T12:19:13.928Z,4.10
2019-03-11T12:22:21.068Z,4.00
2019-03-11T12:25:28.584Z,3.80
2019-03-11T12:28:36.079Z,3.80
2019-03-11T12:31:43.363Z,3.90
2019-03-11T12:34:50.636Z,4.10
2019-03-11T12:37:58.123Z,4.30
2019-03-11T12:41:05.472Z,4.20
2019-03-11T12:44:12.664Z,4.10
2019-03-11T12:47:19.708Z,4.00
2019-03-11T12:50:29.923Z,4.10
2019-03-11T12:53:36.991Z,4.10
2019-03-11T12:56:44.076Z,4.20
2019-03-11T12:59:51.091Z,4.30
2019-03-11T13:02:58.350Z,4.40
2019-03-11T13:06:05.477Z,4.40
2019-03-11T13:09:12.519Z,4.50
2019-03-11T13:12:19.603Z,4.50
2019-03-11T13:15:27.293Z,4.50
2019-03-11T13:18:39.613Z,4.40
2019-03-11T13:21:47.308Z,4.40
2019-03-11T13:24:54.296Z,4.30
2019-03-11T13:28:01.618Z,4.40
2019-03-11T13:31:08.691Z,4.40
2019-03-11T13:34:15.897Z,4.50
2019-03-11T13:37:23.055Z,4.50
2019-03-11T13:40:30.248Z,4.50
2019-03-11T13:43:37.731Z,4.60
2019-03-11T13:46:45.058Z,4.70
2019-03-11T13:49:52.240Z,4.80
2019-03-11T13:52:59.391Z,4.80
2019-03-11T13:56:06.601Z,4.80
2019-03-11T13:59:13.884Z,4.80
2019-03-11T14:02:21.044Z,4.80
2019-03-11T14:05:28.136Z,4.80
2019-03-11T14:08:35.226Z,4.90
2019-03-11T14:11:42.513Z,5.00
2019-03-11T14:14:49.541Z,5.10
2019-03-11T14:17:56.707Z,5.00
2019-03-11T14:21:03.860Z,5.10
2019-03-11T14:24:10.966Z,5.00
2019-03-11T14:27:18.019Z,4.90
2019-03-11T14:30:25.242Z,4.60
2019-03-11T14:33:32.352Z,4.60
2019-03-11T14:36:39.424Z,4.60
2019-03-11T14:39:49.601Z,4.70
2019-03-11T14:42:56.764Z,4.60
2019-03-11T14:46:04.099Z,4.60
2019-03-11T14:49:11.181Z,4.60
2019-03-11T14:52:18.523Z,4.60
2019-03-11T14:55:25.919Z,4.60
2019-03-11T14:58:33.146Z,4.50
2019-03-11T15:01:40.550Z,4.50
2019-03-11T15:04:47.821Z,4.50
2019-03-11T15:07:55.211Z,4.70
2019-03-11T15:11:02.511Z,4.70
2019-03-11T15:14:09.752Z,4.80
2019-03-11T15:17:17.023Z,5.00
2019-03-11T15:20:24.285Z,5.00
2019-03-11T15:23:31.544Z,5.10
2019-03-11T15:26:39.297Z,5.20
2019-03-11T15:29:46.435Z,5.00
2019-03-11T15:32:53.710Z,5.10
2019-03-11T15:36:00.924Z,5.10
2019-03-11T15:39:08.395Z,5.00
2019-03-11T15:42:15.894Z,5.10
2019-03-11T15:45:23.289Z,5.00
2019-03-11T15:48:30.620Z,5.20
2019-03-11T15:51:37.986Z,5.30
2019-03-11T15:54:45.196Z,5.20
2019-03-11T15:57:52.558Z,5.30
2019-03-11T16:00:59.925Z,5.30
2019-03-11T16:04:07.233Z,5.40
2019-03-11T16:07:14.336Z,5.20
2019-03-11T16:10:21.632Z,5.20
2019-03-11T16:13:28.623Z,5.20
2019-03-11T16:16:35.704Z,5.30
2019-03-11T16:19:42.963Z,5.30
2019-03-11T16:22:50.188Z,5.40
2019-03-11T16:25:57.203Z,5.40
2019-03-11T16:29:04.184Z,5.40
2019-03-11T16:32:12.155Z,5.30
2019-03-11T16:35:19.688Z,5.00
2019-03-11T16:38:26.878Z,4.90
2019-03-11T16:41:33.899Z,4.80
2019-03-11T16:44:40.969Z,4.80
2019-03-11T16:47:48.487Z,4.70
2019-03-11T16:50:55.512Z,4.70
2019-03-11T16:54:02.554Z,4.70
2019-03-11T16:57:09.516Z,4.70
2019-03-11T17:00:18.514Z,4.70
2019-03-11T17:03:25.504Z,4.60
2019-03-11T17:06:32.456Z,4.60
2019-03-11T17:09:39.464Z,4.50
2019-03-11T17:12:46.449Z,4.60
2019-03-11T17:15:53.562Z,4.60
2019-03-11T17:19:00.600Z,4.70
2019-03-11T17:22:08.595Z,4.70
2019-03-11T17:25:16.356Z,4.70
2019-03-11T17:28:23.540Z,4.80
2019-03-11T17:31:30.715Z,4.80
2019-03-11T17:34:39.974Z,4.90
2019-03-11T17:37:46.818Z,4.90
2019-03-11T17:40:54.097Z,4.90
2019-03-11T17:44:01.465Z,4.90
2019-03-11T17:47:08.885Z,4.80
2019-03-11T17:50:16.956Z,4.90
2019-03-11T17:53:24.391Z,4.90
2019-03-11T17:56:31.637Z,4.90
2019-03-11T17:59:38.788Z,4.80
2019-03-11T18:02:46.046Z,4.70
2019-03-11T18:05:53.230Z,4.70
2019-03-11T18:09:00.442Z,4.70
2019-03-11T18:12:07.995Z,4.70
2019-03-11T18:15:15.483Z,4.80
2019-03-11T18:18:32.609Z,4.70
2019-03-11T18:21:31.592Z,4.80
2019-03-11T18:24:38.653Z,4.80
2019-03-11T18:27:45.757Z,4.80
2019-03-11T18:30:53.257Z,4.60
2019-03-11T18:34:00.398Z,4.50
2019-03-11T18:37:07.544Z,4.40
2019-03-11T18:40:15.265Z,4.30
2019-03-11T18:43:22.412Z,4.30
2019-03-11T18:46:29.565Z,4.20
2019-03-11T18:49:36.632Z,4.10
2019-03-11T18:52:43.874Z,4.00
2019-03-11T18:55:51.137Z,3.80
2019-03-11T18:58:58.290Z,3.80
2019-03-11T19:02:05.515Z,3.60
2019-03-11T19:05:13.343Z,3.60
2019-03-11T19:08:20.569Z,3.50
2019-03-11T19:11:27.909Z,3.60
2019-03-11T19:14:35.104Z,3.60
2019-03-11T19:17:42.203Z,3.60
2019-03-11T19:20:49.703Z,3.40
2019-03-11T19:23:56.845Z,3.40
2019-03-11T19:27:04.005Z,3.50
2019-03-11T19:30:17.040Z,3.50
2019-03-11T19:33:24.322Z,3.40
2019-03-11T19:36:33.507Z,3.40
2019-03-11T19:39:40.267Z,3.40
2019-03-11T19:42:47.511Z,3.40
2019-03-11T19:45:55.028Z,3.30
2019-03-11T19:49:02.480Z,3.40
2019-03-11T19:52:09.659Z,3.40
2019-03-11T19:55:16.928Z,3.40
2019-03-11T19:58:25.015Z,3.30
2019-03-11T20:01:32.569Z,3.30
2019-03-11T20:04:40.188Z,3.30
2019-03-11T20:07:47.678Z,3.30
2019-03-11T20:10:54.888Z,3.30
2019-03-11T20:14:01.938Z,3.30
2019-03-11T20:17:09.359Z,3.20
2019-03-11T20:20:16.673Z,3.10
2019-03-11T20:23:24.379Z,3.10
2019-03-11T20:26:31.463Z,3.10
2019-03-11T20:29:38.535Z,3.10
2019-03-11T20:32:47.153Z,3.10
2019-03-11T20:35:54.718Z,3.10
2019-03-11T20:39:01.730Z,3.10
2019-03-11T20:42:09.140Z,3.00
2019-03-11T20:45:16.328Z,3.00
2019-03-11T20:48:23.424Z,3.00
2019-03-11T20:51:30.522Z,3.00
2019-03-11T20:54:37.794Z,3.10
2019-03-11T20:57:44.952Z,3.20
2019-03-11T21:00:52.191Z,3.20
2019-03-11T21:03:59.547Z,3.20
2019-03-11T21:07:06.737Z,3.20
2019-03-11T21:10:15.016Z,3.20
2019-03-11T21:13:22.358Z,3.30
2019-03-11T21:16:29.402Z,3.40
2019-03-11T21:19:36.515Z,3.30
2019-03-11T21:22:43.742Z,3.30
2019-03-11T21:25:51.111Z,3.30
2019-03-11T21:28:58.631Z,3.40
2019-03-11T21:32:06.901Z,3.40
2019-03-11T21:35:14.478Z,3.50
2019-03-11T21:38:21.684Z,3.40
2019-03-11T21:41:29.208Z,3.40
2019-03-11T21:44:36.374Z,3.50
2019-03-11T21:47:43.606Z,3.50
2019-03-11T21:50:50.762Z,3.50
2019-03-11T21:53:57.897Z,3.50
2019-03-11T21:57:05.017Z,3.40
2019-03-11T22:00:14.711Z,3.50
2019-03-11T22:03:21.875Z,3.50
2019-03-11T22:06:30.818Z,3.60
2019-03-11T22:09:38.375Z,3.60
2019-03-11T22:12:45.527Z,3.60
2019-03-11T22:15:52.642Z,3.60
2019-03-11T22:19:00.127Z,3.60
2019-03-11T22:22:07.245Z,3.50
2019-03-11T22:25:14.957Z,3.40
2019-03-11T22:28:22.091Z,3.30
2019-03-11T22:31:29.300Z,3.40
2019-03-11T22:34:36.389Z,3.40
2019-03-11T22:37:43.680Z,3.50
2019-03-11T22:40:51.693Z,3.50
2019-03-11T22:43:58.999Z,3.50
2019-03-11T22:47:06.398Z,3.50
2019-03-11T22:50:13.974Z,3.40
2019-03-11T22:53:21.075Z,3.50
2019-03-11T22:56:28.663Z,3.50
2019-03-11T22:59:36.108Z,3.50
2019-03-11T23:02:43.705Z,3.50
2019-03-11T23:05:57.555Z,3.50
2019-03-11T23:08:59.918Z,3.50
2019-03-11T23:12:07.149Z,3.50
2019-03-11T23:15:14.397Z,3.60
2019-03-11T23:18:28.291Z,3.60
2019-03-11T23:21:35.586Z,3.60
2019-03-11T23:24:42.657Z,3.60
2019-03-11T23:27:49.689Z,3.70
2019-03-11T23:30:56.817Z,3.70
2019-03-11T23:34:03.837Z,3.70
2019-03-11T23:37:10.940Z,3.80
2019-03-11T23:40:17.986Z,3.90
2019-03-11T23:43:25.407Z,3.90
2019-03-11T23:46:32.416Z,4.00
2019-03-11T23:49:39.534Z,4.00
2019-03-11T23:52:46.847Z,3.90
2019-03-11T23:55:54.304Z,3.70
2019-03-11T23:59:01.606Z,3.60
